Time;durP1;ratioP1;P1;durP2;ratioP2;P2;SDS_P1;SDS_P2;PMS_P1;PMS_P2;Temp;Humidity;BMP_temperature;BMP_pressure;BME280_temperature;BME280_humidity;BME280_pressure;Samples;Min_cycle;Max_cycle;Signal;HPM_P1;HPM_P2
2022/10/20 00:02:11;;;;;;;;;;;13.30;69.90;;;;;;5036004;28;19920;-84
2022/10/20 00:04:36;;;;;;;;;;;13.30;69.90;;;;;;5053353;28;19929;-83
2022/10/20 00:07:02;;;;;;;;;;;13.30;69.90;;;;;;5036011;28;19941;-84
2022/10/20 00:09:27;;;;;;;;;;;13.30;69.90;;;;;;5036625;28;19952;-84
2022/10/20 00:11:53;;;;;;;;;;;13.20;69.90;;;;;;5020196;28;19968;-84
2022/10/20 00:14:19;;;;;;;;;;;13.20;69.90;;;;;;5052631;28;19924;-83
2022/10/20 00:16:44;;;;;;;;;;;13.20;69.90;;;;;;5036230;28;19941;-84
2022/10/20 00:19:10;;;;;;;;;;;13.20;69.90;;;;;;5036117;28;20250;-83
2022/10/20 00:21:36;;;;;;;;;;;13.20;70.00;;;;;;5036321;28;20412;-83
2022/10/20 00:24:02;;;;;;;;;;;13.20;69.90;;;;;;5035851;28;19921;-84
2022/10/20 00:26:28;;;;;;;;;;;13.20;70.60;;;;;;5034634;28;20342;-84
2022/10/20 00:28:53;;;;;;;;;;;13.10;69.90;;;;;;5052166;28;19995;-84
2022/10/20 00:31:20;;;;;;;;;;;13.10;69.90;;;;;;5035901;28;19953;-84
2022/10/20 00:33:46;;;;;;;;;;;13.10;70.00;;;;;;5035480;28;19924;-83
2022/10/20 00:36:12;;;;;;;;;;;13.10;70.00;;;;;;5035822;28;19946;-83
2022/10/20 00:38:38;;;;;;;;;;;13.10;70.00;;;;;;5035953;28;19935;-83
2022/10/20 00:41:04;;;;;;;;;;;13.10;70.00;;;;;;5019570;28;20420;-83
2022/10/20 00:43:59;;;;;;;;;;;13.10;70.00;;;;;;5035200;28;20313;-83
2022/10/20 00:46:42;;;;;;;;;;;13.10;70.00;;;;;;5022759;28;19921;-84
2022/10/20 00:49:13;;;;;;;;;;;13.10;70.00;;;;;;5036061;28;20002;-83
2022/10/20 00:51:38;;;;;;;;;;;13.10;70.00;;;;;;5035669;28;19913;-83
2022/10/20 00:54:07;;;;;;;;;;;13.00;70.00;;;;;;5018918;28;19920;-84
2022/10/20 00:56:32;;;;;;;;;;;13.00;70.00;;;;;;5036426;28;19913;-84
2022/10/20 00:58:59;;;;;;;;;;;13.00;70.00;;;;;;5018771;28;19979;-83
2022/10/20 01:01:25;;;;;;;;;;;13.00;70.00;;;;;;5035182;28;19917;-84
2022/10/20 01:03:51;;;;;;;;;;;13.00;70.00;;;;;;5018120;28;19920;-84
2022/10/20 01:06:18;;;;;;;;;;;13.00;70.00;;;;;;5034914;28;19955;-84
2022/10/20 01:08:44;;;;;;;;;;;13.00;70.00;;;;;;5035874;28;19992;-83
2022/10/20 01:11:28;;;;;;;;;;;13.00;70.10;;;;;;5018362;28;20366;-83
2022/10/20 01:13:57;;;;;;;;;;;13.00;70.10;;;;;;5035672;28;19983;-84
2022/10/20 01:16:28;;;;;;;;;;;13.00;70.10;;;;;;5036037;28;19909;-84
2022/10/20 01:19:02;;;;;;;;;;;12.90;70.10;;;;;;5036120;28;19913;-83
2022/10/20 01:21:50;;;;;;;;;;;12.90;70.10;;;;;;5034809;28;19914;-84
2022/10/20 01:24:28;;;;;;;;;;;12.90;70.10;;;;;;5017167;28;19921;-84
2022/10/20 01:27:32;;;;;;;;;;;12.90;70.10;;;;;;5035773;28;19967;-83
2022/10/20 01:30:04;;;;;;;;;;;12.90;70.10;;;;;;4978148;28;19921;-84
2022/10/20 01:32:29;;;;;;;;;;;12.80;70.10;;;;;;4962568;28;19914;-84
2022/10/20 01:35:00;;;;;;;;;;;12.80;70.10;;;;;;5015020;28;20377;-84
2022/10/20 01:37:45;;;;;;;;;;;12.80;70.10;;;;;;5050923;28;19928;-84
2022/10/20 01:40:22;;;;;;;;;;;12.80;70.10;;;;;;5036018;28;19963;-84
2022/10/20 01:42:50;;;;;;;;;;;12.80;70.10;;;;;;5033904;28;19964;-84
2022/10/20 01:45:17;;;;;;;;;;;12.80;70.20;;;;;;5035115;28;19929;-83
2022/10/20 01:47:43;;;;;;;;;;;12.80;70.20;;;;;;5017758;28;19928;-84
2022/10/20 01:50:09;;;;;;;;;;;12.80;70.20;;;;;;5034310;28;20404;-84
2022/10/20 01:52:35;;;;;;;;;;;12.80;70.20;;;;;;5034160;28;19951;-84
2022/10/20 01:55:01;;;;;;;;;;;12.70;70.80;;;;;;5035253;28;19909;-84
2022/10/20 01:57:26;;;;;;;;;;;12.70;70.10;;;;;;5035443;28;19914;-83
2022/10/20 01:59:52;;;;;;;;;;;12.70;70.20;;;;;;5034466;28;19909;-84
2022/10/20 02:02:17;;;;;;;;;;;12.70;70.20;;;;;;5034864;28;19949;-84
2022/10/20 02:04:53;;;;;;;;;;;12.70;70.20;;;;;;5034953;28;19924;-83
2022/10/20 02:07:25;;;;;;;;;;;12.70;70.20;;;;;;5035173;28;19949;-84
2022/10/20 02:09:52;;;;;;;;;;;12.70;70.20;;;;;;5034920;28;19924;-84
2022/10/20 02:12:21;;;;;;;;;;;12.70;70.20;;;;;;5035019;28;20397;-84
2022/10/20 02:14:47;;;;;;;;;;;12.70;70.20;;;;;;5034983;28;19913;-83
2022/10/20 02:17:14;;;;;;;;;;;12.70;70.20;;;;;;5033591;28;19956;-84
2022/10/20 02:19:41;;;;;;;;;;;12.60;70.20;;;;;;5035003;28;19995;-84
2022/10/20 02:22:08;;;;;;;;;;;12.60;70.20;;;;;;5033627;28;19913;-84
2022/10/20 02:24:35;;;;;;;;;;;12.60;70.20;;;;;;5050225;28;19928;-84
2022/10/20 02:27:02;;;;;;;;;;;12.60;70.20;;;;;;5033693;28;19990;-84
2022/10/20 02:29:29;;;;;;;;;;;12.60;70.20;;;;;;5034247;28;19913;-84
2022/10/20 02:31:55;;;;;;;;;;;12.60;70.20;;;;;;5033548;28;19924;-84
2022/10/20 02:34:24;;;;;;;;;;;12.60;70.30;;;;;;5033434;28;20104;-83
2022/10/20 02:36:49;;;;;;;;;;;12.60;70.30;;;;;;5033020;28;19939;-84
2022/10/20 02:39:15;;;;;;;;;;;12.60;70.30;;;;;;5033370;28;19917;-84
2022/10/20 02:41:40;;;;;;;;;;;12.60;70.30;;;;;;5033135;28;20361;-84
2022/10/20 02:44:06;;;;;;;;;;;12.50;70.20;;;;;;5033211;28;19960;-83
2022/10/20 02:46:32;;;;;;;;;;;12.50;70.30;;;;;;5016559;28;20383;-84
2022/10/20 02:48:58;;;;;;;;;;;12.50;70.30;;;;;;5015458;28;20818;-84
2022/10/20 02:51:24;;;;;;;;;;;12.50;70.30;;;;;;5033036;28;19936;-84
2022/10/20 02:53:49;;;;;;;;;;;12.50;70.30;;;;;;5016689;28;19921;-84
2022/10/20 02:56:15;;;;;;;;;;;12.50;70.30;;;;;;5034248;28;20370;-84
2022/10/20 02:58:41;;;;;;;;;;;12.50;70.30;;;;;;5033814;28;19913;-84
2022/10/20 03:01:06;;;;;;;;;;;12.50;70.30;;;;;;5016672;28;20373;-84
2022/10/20 03:03:32;;;;;;;;;;;12.50;70.30;;;;;;5033377;28;19919;-84
2022/10/20 03:06:05;;;;;;;;;;;12.40;70.30;;;;;;5033096;28;19925;-83
2022/10/20 03:08:30;;;;;;;;;;;12.40;70.30;;;;;;5033214;28;20368;-84
2022/10/20 03:10:56;;;;;;;;;;;12.40;70.30;;;;;;5032973;28;19920;-83
2022/10/20 03:13:21;;;;;;;;;;;12.40;70.40;;;;;;5034145;28;20294;-84
2022/10/20 03:15:47;;;;;;;;;;;12.50;70.40;;;;;;5033829;28;19914;-84
2022/10/20 03:18:13;;;;;;;;;;;12.40;70.40;;;;;;5033655;28;20219;-84
2022/10/20 03:20:38;;;;;;;;;;;12.40;70.40;;;;;;5032786;28;19918;-84
2022/10/20 03:23:04;;;;;;;;;;;12.40;70.40;;;;;;5016335;28;19925;-84
2022/10/20 03:25:30;;;;;;;;;;;12.40;70.40;;;;;;5034569;28;19964;-84
2022/10/20 03:27:56;;;;;;;;;;;12.40;70.40;;;;;;5032608;28;19951;-84
2022/10/20 03:30:21;;;;;;;;;;;12.40;70.40;;;;;;5033307;28;19913;-83
2022/10/20 03:32:47;;;;;;;;;;;12.40;70.40;;;;;;5049396;28;19923;-84
2022/10/20 03:35:13;;;;;;;;;;;12.30;70.40;;;;;;5032625;28;19909;-84
2022/10/20 03:37:38;;;;;;;;;;;12.30;70.40;;;;;;5032225;28;20007;-84
2022/10/20 03:40:04;;;;;;;;;;;12.30;70.40;;;;;;5033657;28;19914;-84
2022/10/20 03:42:30;;;;;;;;;;;12.30;70.40;;;;;;5049259;28;20429;-83
2022/10/20 03:44:55;;;;;;;;;;;12.30;70.40;;;;;;5032907;28;19925;-84
2022/10/20 03:47:21;;;;;;;;;;;12.30;70.40;;;;;;5033940;28;19925;-83
2022/10/20 03:49:47;;;;;;;;;;;12.30;70.40;;;;;;5016480;28;19951;-84
2022/10/20 03:52:12;;;;;;;;;;;12.30;70.40;;;;;;5016298;28;19917;-85
2022/10/20 03:54:39;;;;;;;;;;;12.30;70.40;;;;;;5033445;28;19948;-84
2022/10/20 03:57:05;;;;;;;;;;;12.30;70.40;;;;;;5033252;28;19920;-84
2022/10/20 03:59:30;;;;;;;;;;;12.30;70.40;;;;;;5034039;28;19917;-83
2022/10/20 04:01:56;;;;;;;;;;;12.30;70.40;;;;;;5019531;28;19956;-84
2022/10/20 04:04:22;;;;;;;;;;;12.30;70.50;;;;;;5036207;28;20393;-84
2022/10/20 04:06:48;;;;;;;;;;;12.30;70.40;;;;;;5037273;28;19917;-84
2022/10/20 04:09:13;;;;;;;;;;;12.30;70.50;;;;;;5036419;28;19913;-84
2022/10/20 04:11:39;;;;;;;;;;;12.20;70.40;;;;;;5037235;28;19929;-84
2022/10/20 04:14:04;;;;;;;;;;;12.20;70.40;;;;;;5037423;28;19913;-84
2022/10/20 04:16:30;;;;;;;;;;;12.30;70.50;;;;;;5019603;28;19927;-84
2022/10/20 04:18:55;;;;;;;;;;;12.20;70.40;;;;;;5037013;28;19913;-84
2022/10/20 04:21:21;;;;;;;;;;;12.20;70.50;;;;;;5038389;28;19919;-84
2022/10/20 04:23:47;;;;;;;;;;;12.20;70.50;;;;;;5053052;28;19917;-85
2022/10/20 04:26:13;;;;;;;;;;;12.20;70.50;;;;;;5019640;28;19925;-84
2022/10/20 04:28:39;;;;;;;;;;;12.20;70.50;;;;;;5035735;28;19997;-84
2022/10/20 04:31:05;;;;;;;;;;;12.20;70.50;;;;;;5036653;28;19948;-84
2022/10/20 04:33:31;;;;;;;;;;;12.20;70.50;;;;;;5018770;28;20020;-83
2022/10/20 04:36:00;;;;;;;;;;;12.20;70.60;;;;;;5035438;28;20011;-84
2022/10/20 04:38:27;;;;;;;;;;;12.20;70.60;;;;;;5035719;28;19920;-83
2022/10/20 04:40:57;;;;;;;;;;;12.20;70.50;;;;;;5035570;28;20361;-85
2022/10/20 04:43:23;;;;;;;;;;;12.20;70.60;;;;;;5035171;28;19925;-85
2022/10/20 04:45:48;;;;;;;;;;;12.20;70.60;;;;;;5035210;28;20420;-83
2022/10/20 04:48:15;;;;;;;;;;;12.20;70.60;;;;;;5034709;28;19917;-81
2022/10/20 04:50:40;;;;;;;;;;;12.20;70.60;;;;;;5036375;28;19913;-83
2022/10/20 04:53:06;;;;;;;;;;;12.20;70.60;;;;;;5035920;28;19921;-83
2022/10/20 04:55:32;;;;;;;;;;;12.20;70.60;;;;;;5034643;28;20255;-84
2022/10/20 04:57:58;;;;;;;;;;;12.20;70.60;;;;;;5034786;28;19924;-83
2022/10/20 05:00:23;;;;;;;;;;;12.20;70.60;;;;;;5034919;28;19919;-84
2022/10/20 05:02:49;;;;;;;;;;;12.10;70.60;;;;;;5036066;28;20011;-84
2022/10/20 05:05:15;;;;;;;;;;;12.10;70.60;;;;;;5034793;28;19918;-83
2022/10/20 05:07:40;;;;;;;;;;;12.10;70.60;;;;;;5034474;28;19913;-84
2022/10/20 05:10:06;;;;;;;;;;;12.10;70.60;;;;;;5018785;28;19959;-83
2022/10/20 05:12:32;;;;;;;;;;;12.10;70.60;;;;;;5034997;28;19909;-84
2022/10/20 05:14:57;;;;;;;;;;;12.10;70.60;;;;;;5034408;28;19920;-84
2022/10/20 05:17:23;;;;;;;;;;;12.10;70.60;;;;;;5034426;28;19915;-83
2022/10/20 05:19:49;;;;;;;;;;;12.10;70.60;;;;;;5034698;28;19913;-84
2022/10/20 05:22:14;;;;;;;;;;;12.10;70.70;;;;;;5035939;28;19948;-84
2022/10/20 05:24:40;;;;;;;;;;;12.10;70.70;;;;;;5017318;28;19933;-82
2022/10/20 05:27:05;;;;;;;;;;;12.10;70.70;;;;;;5035279;28;19944;-83
2022/10/20 05:29:31;;;;;;;;;;;12.10;70.70;;;;;;5034015;28;19962;-82
2022/10/20 05:31:57;;;;;;;;;;;12.10;70.70;;;;;;5034217;28;20000;-83
2022/10/20 05:34:22;;;;;;;;;;;12.10;70.70;;;;;;5034945;28;19917;-84
2022/10/20 05:36:48;;;;;;;;;;;12.10;70.70;;;;;;5018224;28;19921;-85
2022/10/20 05:39:14;;;;;;;;;;;12.10;70.70;;;;;;5034249;28;19913;-86
2022/10/20 05:41:39;;;;;;;;;;;12.10;70.70;;;;;;5034333;28;19928;-86
2022/10/20 05:44:07;;;;;;;;;;;12.10;70.70;;;;;;5018050;28;19932;-85
2022/10/20 05:46:34;;;;;;;;;;;12.10;70.70;;;;;;5035668;28;19971;-85
2022/10/20 05:49:01;;;;;;;;;;;12.10;70.70;;;;;;5017954;28;19959;-85
2022/10/20 05:51:29;;;;;;;;;;;12.10;70.70;;;;;;5034483;28;19917;-85
2022/10/20 05:53:55;;;;;;;;;;;12.10;70.70;;;;;;5034302;28;19976;-84
2022/10/20 05:56:21;;;;;;;;;;;12.10;70.70;;;;;;5034120;28;19909;-83
2022/10/20 05:58:47;;;;;;;;;;;12.10;70.80;;;;;;5034014;28;19909;-86
2022/10/20 06:01:16;;;;;;;;;;;12.10;70.80;;;;;;5034880;28;19967;-83
2022/10/20 06:03:42;;;;;;;;;;;12.10;70.80;;;;;;5033768;28;19948;-85
2022/10/20 06:06:08;;;;;;;;;;;12.10;70.80;;;;;;5034635;28;19917;-84
2022/10/20 06:08:33;;;;;;;;;;;12.10;70.80;;;;;;5034284;28;19939;-86
2022/10/20 06:11:03;;;;;;;;;;;12.10;70.80;;;;;;5017564;28;19917;-85
2022/10/20 06:13:29;;;;;;;;;;;12.10;70.80;;;;;;5034872;28;19913;-84
2022/10/20 06:15:59;;;;;;;;;;;12.10;70.80;;;;;;5035601;28;19909;-85
2022/10/20 06:18:25;;;;;;;;;;;12.10;70.80;;;;;;5033922;28;20051;-85
2022/10/20 06:20:57;;;;;;;;;;;12.10;70.80;;;;;;5033561;28;19952;-85
2022/10/20 06:23:22;;;;;;;;;;;12.10;70.90;;;;;;5034043;28;19913;-84
2022/10/20 06:25:48;;;;;;;;;;;12.10;70.80;;;;;;5017306;28;19945;-84
2022/10/20 06:28:14;;;;;;;;;;;12.10;70.80;;;;;;5050992;28;19924;-85
2022/10/20 06:30:39;;;;;;;;;;;12.10;70.80;;;;;;5034681;28;19924;-84
2022/10/20 06:33:05;;;;;;;;;;;12.10;71.50;;;;;;5034926;28;20328;-85
2022/10/20 06:35:30;;;;;;;;;;;12.10;70.90;;;;;;5017903;28;20305;-85
2022/10/20 06:37:56;;;;;;;;;;;12.10;70.90;;;;;;5034874;28;19913;-84
2022/10/20 06:40:22;;;;;;;;;;;12.10;70.90;;;;;;5033509;28;19984;-84
2022/10/20 06:42:47;;;;;;;;;;;12.10;70.80;;;;;;5016870;28;19921;-84
2022/10/20 06:45:14;;;;;;;;;;;12.00;70.80;;;;;;5034427;28;20346;-84
2022/10/20 06:47:39;;;;;;;;;;;12.10;70.90;;;;;;5034329;28;19928;-83
2022/10/20 06:50:05;;;;;;;;;;;12.00;70.80;;;;;;5016617;28;19921;-83
2022/10/20 06:52:31;;;;;;;;;;;12.10;70.90;;;;;;5033161;28;19967;-83
2022/10/20 06:54:57;;;;;;;;;;;12.10;70.90;;;;;;5033167;28;20394;-83
2022/10/20 06:57:23;;;;;;;;;;;12.10;70.90;;;;;;5016381;28;19984;-83
2022/10/20 06:59:48;;;;;;;;;;;12.00;70.90;;;;;;5033081;28;19913;-84
2022/10/20 07:02:15;;;;;;;;;;;12.00;70.80;;;;;;5033154;28;20016;-84
2022/10/20 07:04:40;;;;;;;;;;;12.10;70.90;;;;;;5033870;28;19944;-84
2022/10/20 07:07:06;;;;;;;;;;;12.10;70.90;;;;;;5033229;28;19918;-83
2022/10/20 07:09:31;;;;;;;;;;;12.10;70.90;;;;;;5032671;28;19913;-84
2022/10/20 07:11:57;;;;;;;;;;;12.10;70.90;;;;;;5033234;28;19917;-84
2022/10/20 07:14:23;;;;;;;;;;;12.10;70.90;;;;;;5032921;28;19956;-83
2022/10/20 07:16:48;;;;;;;;;;;12.10;70.90;;;;;;5032766;28;19917;-84
2022/10/20 07:19:14;;;;;;;;;;;12.10;70.90;;;;;;5016223;28;19948;-84
2022/10/20 07:21:43;;;;;;;;;;;12.10;70.90;;;;;;5032707;28;19917;-83
2022/10/20 07:24:16;;;;;;;;;;;12.10;71.00;;;;;;5033376;28;19916;-83
2022/10/20 07:26:41;;;;;;;;;;;12.10;70.90;;;;;;5034440;28;19917;-83
2022/10/20 07:29:08;;;;;;;;;;;12.10;71.00;;;;;;5017035;28;19913;-84
2022/10/20 07:31:35;;;;;;;;;;;12.10;71.00;;;;;;5033240;28;19979;-83
2022/10/20 07:34:01;;;;;;;;;;;12.10;71.00;;;;;;5032882;28;19913;-82
2022/10/20 07:36:28;;;;;;;;;;;12.10;71.00;;;;;;5036109;28;19957;-83
2022/10/20 07:38:55;;;;;;;;;;;12.10;71.00;;;;;;5036688;28;19971;-83
2022/10/20 07:41:21;;;;;;;;;;;12.10;71.00;;;;;;5037216;28;19917;-83
2022/10/20 07:43:46;;;;;;;;;;;12.10;71.00;;;;;;5036276;28;19925;-82
2022/10/20 07:46:12;;;;;;;;;;;12.10;71.00;;;;;;5036270;28;19917;-83
2022/10/20 07:48:38;;;;;;;;;;;12.10;71.00;;;;;;5037166;28;19913;-84
2022/10/20 07:51:14;;;;;;;;;;;12.20;71.10;;;;;;5052800;28;19996;-84
2022/10/20 07:53:40;;;;;;;;;;;12.20;71.00;;;;;;5052895;28;20470;-85
2022/10/20 07:56:05;;;;;;;;;;;12.10;71.00;;;;;;5036133;28;19960;-84
2022/10/20 07:58:31;;;;;;;;;;;12.20;71.10;;;;;;5036924;28;20354;-83
2022/10/20 08:00:57;;;;;;;;;;;12.20;71.10;;;;;;5035935;28;19960;-83
2022/10/20 08:03:22;;;;;;;;;;;12.20;71.10;;;;;;5019748;28;19917;-83
2022/10/20 08:05:48;;;;;;;;;;;12.20;71.10;;;;;;5036575;28;20346;-83
2022/10/20 08:08:13;;;;;;;;;;;12.20;71.10;;;;;;5035794;28;19970;-83
2022/10/20 08:10:39;;;;;;;;;;;12.20;71.10;;;;;;5036736;28;20270;-83
2022/10/20 08:13:05;;;;;;;;;;;12.20;71.10;;;;;;5019045;28;19924;-82
2022/10/20 08:15:30;;;;;;;;;;;12.20;71.10;;;;;;5036018;28;19955;-83
2022/10/20 08:17:56;;;;;;;;;;;12.20;71.10;;;;;;5035686;28;19995;-83
2022/10/20 08:20:21;;;;;;;;;;;12.30;71.10;;;;;;5035429;28;19914;-83
2022/10/20 08:22:47;;;;;;;;;;;12.20;71.10;;;;;;5035999;28;19917;-83
2022/10/20 08:25:13;;;;;;;;;;;12.30;71.10;;;;;;5019181;28;20012;-83
2022/10/20 08:27:39;;;;;;;;;;;12.30;71.20;;;;;;5035535;28;20350;-82
2022/10/20 08:30:05;;;;;;;;;;;12.30;71.10;;;;;;5018935;28;19939;-83
2022/10/20 08:32:30;;;;;;;;;;;12.30;71.10;;;;;;5019126;28;19921;-85
2022/10/20 08:34:56;;;;;;;;;;;12.30;71.10;;;;;;5018758;28;19924;-82
2022/10/20 08:37:22;;;;;;;;;;;12.40;71.20;;;;;;5035800;28;19909;-83
2022/10/20 08:39:47;;;;;;;;;;;12.30;71.10;;;;;;5052479;28;20007;-82
2022/10/20 08:42:13;;;;;;;;;;;12.40;71.20;;;;;;5035614;28;19913;-81
2022/10/20 08:44:40;;;;;;;;;;;12.40;71.10;;;;;;5036300;28;19935;-81
2022/10/20 08:47:13;;;;;;;;;;;12.40;71.10;;;;;;5033739;28;20330;-81
2022/10/20 08:49:39;;;;;;;;;;;12.40;71.20;;;;;;5035299;28;19943;-82
2022/10/20 08:52:10;;;;;;;;;;;12.40;71.10;;;;;;5035216;28;20020;-83
2022/10/20 08:54:35;;;;;;;;;;;12.50;71.20;;;;;;5036217;28;19913;-83
2022/10/20 08:57:01;;;;;;;;;;;12.50;71.20;;;;;;5035685;28;20293;-82
2022/10/20 08:59:34;;;;;;;;;;;12.50;71.20;;;;;;5051804;28;19959;-81
2022/10/20 09:02:01;;;;;;;;;;;12.50;71.20;;;;;;5034596;28;20358;-82
2022/10/20 09:04:33;;;;;;;;;;;12.50;71.20;;;;;;5034840;28;19955;-82
2022/10/20 09:07:02;;;;;;;;;;;12.60;71.20;;;;;;5051241;28;19959;-81
2022/10/20 09:09:29;;;;;;;;;;;12.60;71.20;;;;;;5034307;28;20003;-80
2022/10/20 09:11:59;;;;;;;;;;;12.60;71.20;;;;;;5051221;28;19919;-82
2022/10/20 09:14:25;;;;;;;;;;;12.70;71.20;;;;;;5035911;28;19913;-83
2022/10/20 09:16:51;;;;;;;;;;;12.70;71.20;;;;;;5018226;28;19950;-83
2022/10/20 09:19:18;;;;;;;;;;;12.70;71.80;;;;;;5019219;28;19951;-85
2022/10/20 09:21:45;;;;;;;;;;;12.70;71.20;;;;;;5034802;28;19936;-86
2022/10/20 09:24:10;;;;;;;;;;;12.80;71.20;;;;;;5035031;28;19917;-86
2022/10/20 09:26:39;;;;;;;;;;;12.80;71.20;;;;;;5035863;28;19913;-83
2022/10/20 09:29:05;;;;;;;;;;;12.80;71.20;;;;;;5051423;28;19913;-86
2022/10/20 09:31:32;;;;;;;;;;;12.90;71.20;;;;;;5034772;28;19913;-86
2022/10/20 09:33:58;;;;;;;;;;;12.90;71.20;;;;;;5034175;28;19979;-82
2022/10/20 09:36:27;;;;;;;;;;;13.00;71.20;;;;;;5034069;28;19909;-86
2022/10/20 09:38:53;;;;;;;;;;;13.00;71.90;;;;;;5034018;28;20048;-83
2022/10/20 09:41:20;;;;;;;;;;;13.00;71.10;;;;;;5034324;28;19956;-82
2022/10/20 09:43:55;;;;;;;;;;;13.00;71.20;;;;;;5033570;28;19928;-83
2022/10/20 09:46:22;;;;;;;;;;;13.10;71.20;;;;;;5034089;28;19925;-84
2022/10/20 09:48:49;;;;;;;;;;;13.10;71.10;;;;;;5035301;28;19992;-84
2022/10/20 09:51:17;;;;;;;;;;;13.10;71.10;;;;;;5034378;28;19913;-85
2022/10/20 09:53:51;;;;;;;;;;;13.20;71.20;;;;;;5034368;28;20380;-87
2022/10/20 09:56:24;;;;;;;;;;;13.20;71.10;;;;;;5035658;28;19913;-89
2022/10/20 09:58:50;;;;;;;;;;;13.20;71.10;;;;;;5034355;28;19913;-88
2022/10/20 10:01:16;;;;;;;;;;;13.30;71.10;;;;;;5018233;28;19928;-87
2022/10/20 10:03:44;;;;;;;;;;;13.30;71.10;;;;;;5034583;28;20015;-88
2022/10/20 10:06:28;;;;;;;;;;;13.30;71.00;;;;;;5034971;28;19917;-87
2022/10/20 10:08:54;;;;;;;;;;;13.40;71.10;;;;;;5050868;28;19913;-83
2022/10/20 10:11:21;;;;;;;;;;;13.40;71.10;;;;;;5033937;28;20417;-83
2022/10/20 10:13:48;;;;;;;;;;;13.40;71.10;;;;;;5050642;28;19955;-85
2022/10/20 10:16:21;;;;;;;;;;;13.50;71.10;;;;;;5035051;28;20007;-86
2022/10/20 10:19:01;;;;;;;;;;;13.50;71.10;;;;;;5033790;28;19933;-84
2022/10/20 10:21:27;;;;;;;;;;;13.50;71.10;;;;;;5034750;28;19914;-85
2022/10/20 10:23:58;;;;;;;;;;;13.60;71.10;;;;;;5033923;28;19946;-86
2022/10/20 10:26:36;;;;;;;;;;;13.60;71.10;;;;;;5033979;28;19921;-84
2022/10/20 10:29:02;;;;;;;;;;;13.60;71.00;;;;;;5034754;28;19920;-85
2022/10/20 10:31:28;;;;;;;;;;;13.60;71.00;;;;;;5017618;28;19920;-84
2022/10/20 10:33:56;;;;;;;;;;;13.70;71.10;;;;;;5033495;28;20305;-85
2022/10/20 10:36:29;;;;;;;;;;;13.70;71.00;;;;;;5033185;28;19916;-83
2022/10/20 10:38:55;;;;;;;;;;;13.70;71.00;;;;;;5033491;28;20008;-84
2022/10/20 10:41:26;;;;;;;;;;;13.80;71.10;;;;;;5017113;28;19961;-84
2022/10/20 10:43:59;;;;;;;;;;;13.80;71.00;;;;;;5033123;28;19921;-83
2022/10/20 10:46:35;;;;;;;;;;;13.80;71.00;;;;;;5033552;28;20272;-84
2022/10/20 10:49:19;;;;;;;;;;;13.90;71.10;;;;;;5049817;28;19924;-83
2022/10/20 10:51:47;;;;;;;;;;;13.90;71.00;;;;;;5050354;28;19913;-84
2022/10/20 10:54:22;;;;;;;;;;;13.90;71.00;;;;;;5050676;28;19916;-84
2022/10/20 10:56:49;;;;;;;;;;;13.90;71.00;;;;;;5034795;28;19913;-83
2022/10/20 10:59:22;;;;;;;;;;;14.00;71.10;;;;;;5033192;28;20023;-83
2022/10/20 11:02:06;;;;;;;;;;;14.00;71.10;;;;;;5049624;28;19962;-83
2022/10/20 11:04:51;;;;;;;;;;;14.00;71.10;;;;;;5049263;28;19925;-84
2022/10/20 11:07:32;;;;;;;;;;;14.00;71.00;;;;;;5033210;28;19972;-83
2022/10/20 11:10:11;;;;;;;;;;;14.10;71.10;;;;;;5034206;28;19913;-83
2022/10/20 11:12:55;;;;;;;;;;;14.10;71.10;;;;;;5037106;28;19913;-82
2022/10/20 11:15:39;;;;;;;;;;;14.10;71.10;;;;;;5053693;28;20278;-83
2022/10/20 11:18:05;;;;;;;;;;;14.10;71.10;;;;;;5036960;28;19913;-83
2022/10/20 11:20:36;;;;;;;;;;;14.20;71.20;;;;;;5038108;28;20270;-83
2022/10/20 11:23:02;;;;;;;;;;;14.20;71.20;;;;;;5037729;28;19987;-83
2022/10/20 11:25:27;;;;;;;;;;;14.20;71.20;;;;;;5053447;28;20345;-84
2022/10/20 11:27:54;;;;;;;;;;;14.30;71.20;;;;;;5053365;28;20350;-84
2022/10/20 11:30:21;;;;;;;;;;;14.30;71.20;;;;;;5020623;28;19920;-83
2022/10/20 11:32:50;;;;;;;;;;;14.30;71.20;;;;;;5020861;28;20400;-84
2022/10/20 11:35:32;;;;;;;;;;;14.30;71.20;;;;;;5037667;28;19915;-84
2022/10/20 11:38:13;;;;;;;;;;;14.40;71.20;;;;;;5053376;28;19967;-83
2022/10/20 11:40:42;;;;;;;;;;;14.40;71.30;;;;;;5037171;28;20052;-83
2022/10/20 11:43:13;;;;;;;;;;;14.40;71.20;;;;;;5036949;28;19921;-83
2022/10/20 11:45:51;;;;;;;;;;;14.40;71.20;;;;;;5036436;28;19925;-84
2022/10/20 11:48:26;;;;;;;;;;;14.40;71.20;;;;;;5036332;28;20412;-84
2022/10/20 11:50:59;;;;;;;;;;;14.50;71.30;;;;;;5053012;28;19913;-82
2022/10/20 11:53:45;;;;;;;;;;;14.50;71.20;;;;;;5052965;28;20289;-83
2022/10/20 11:56:20;;;;;;;;;;;14.50;71.20;;;;;;5019234;28;19917;-80
2022/10/20 11:58:52;;;;;;;;;;;14.50;71.20;;;;;;5052744;28;20438;-82
2022/10/20 12:01:36;;;;;;;;;;;14.60;71.20;;;;;;5053322;28;20304;-83
2022/10/20 12:04:08;;;;;;;;;;;14.60;71.20;;;;;;5036595;28;20261;-82
2022/10/20 12:06:42;;;;;;;;;;;14.60;71.20;;;;;;5052560;28;19928;-82
2022/10/20 12:09:19;;;;;;;;;;;14.60;71.20;;;;;;5052115;28;19919;-82
2022/10/20 12:11:56;;;;;;;;;;;14.70;71.20;;;;;;5037441;28;19913;-82
2022/10/20 12:14:21;;;;;;;;;;;14.70;71.20;;;;;;5035902;28;19960;-83
2022/10/20 12:16:50;;;;;;;;;;;14.70;71.20;;;;;;5037239;28;20301;-83
2022/10/20 12:19:25;;;;;;;;;;;14.70;71.20;;;;;;5037096;28;20012;-82
2022/10/20 12:21:58;;;;;;;;;;;14.70;71.10;;;;;;5052327;28;20043;-83
2022/10/20 12:24:47;;;;;;;;;;;14.80;71.20;;;;;;5036305;28;19967;-81
2022/10/20 12:27:17;;;;;;;;;;;14.80;71.10;;;;;;5007690;28;20357;-82
2022/10/20 12:29:43;;;;;;;;;;;14.80;71.10;;;;;;5035351;28;20321;-82
2022/10/20 12:32:22;;;;;;;;;;;14.80;71.10;;;;;;5037094;28;19916;-82
2022/10/20 12:35:08;;;;;;;;;;;14.80;71.10;;;;;;5035446;28;19917;-81
2022/10/20 12:37:34;;;;;;;;;;;14.90;71.10;;;;;;5033930;28;20027;-83
2022/10/20 12:40:06;;;;;;;;;;;14.90;71.10;;;;;;5035012;28;19917;-83
2022/10/20 12:42:32;;;;;;;;;;;14.90;71.00;;;;;;5036237;28;19914;-82
2022/10/20 12:45:04;;;;;;;;;;;14.90;71.00;;;;;;5034577;28;19921;-83
2022/10/20 12:47:31;;;;;;;;;;;14.90;71.10;;;;;;5035365;28;19956;-82
2022/10/20 12:50:01;;;;;;;;;;;14.90;71.00;;;;;;5034817;28;20277;-83
2022/10/20 12:52:29;;;;;;;;;;;15.00;71.00;;;;;;5051575;28;19920;-82
2022/10/20 12:55:02;;;;;;;;;;;15.00;71.00;;;;;;5034998;28;20262;-83
2022/10/20 12:57:35;;;;;;;;;;;15.00;71.00;;;;;;5034834;28;19912;-83
2022/10/20 13:00:01;;;;;;;;;;;15.00;70.90;;;;;;5051332;28;19921;-83
2022/10/20 13:02:31;;;;;;;;;;;15.10;71.00;;;;;;5034836;28;19960;-83
2022/10/20 13:05:01;;;;;;;;;;;15.00;70.90;;;;;;5035343;28;20350;-83
2022/10/20 13:07:45;;;;;;;;;;;15.00;70.90;;;;;;5034882;28;19920;-81
2022/10/20 13:10:29;;;;;;;;;;;15.10;71.00;;;;;;5035017;28;20277;-84
2022/10/20 13:13:01;;;;;;;;;;;15.10;71.00;;;;;;5035942;28;19956;-84
2022/10/20 13:15:41;;;;;;;;;;;15.10;70.90;;;;;;5051220;28;19914;-82
2022/10/20 13:18:10;;;;;;;;;;;15.10;70.90;;;;;;5052002;28;19983;-83
2022/10/20 13:20:54;;;;;;;;;;;15.20;71.00;;;;;;5051322;28;19979;-83
2022/10/20 13:23:32;;;;;;;;;;;15.20;71.00;;;;;;5051518;28;19959;-83
2022/10/20 13:26:02;;;;;;;;;;;15.20;70.90;;;;;;5034215;28;19921;-82
2022/10/20 13:28:29;;;;;;;;;;;15.30;70.90;;;;;;5034207;28;19917;-83
2022/10/20 13:31:01;;;;;;;;;;;15.20;70.90;;;;;;5034055;28;19909;-82
2022/10/20 13:33:36;;;;;;;;;;;15.30;70.90;;;;;;5050160;28;19988;-83
2022/10/20 13:36:04;;;;;;;;;;;15.30;70.90;;;;;;5051385;28;19920;-83
2022/10/20 13:38:34;;;;;;;;;;;15.30;70.90;;;;;;5034253;28;20000;-83
2022/10/20 13:41:03;;;;;;;;;;;15.30;70.90;;;;;;5050673;28;19975;-83
2022/10/20 13:43:47;;;;;;;;;;;15.40;70.90;;;;;;5050034;28;19928;-83
2022/10/20 13:46:22;;;;;;;;;;;15.30;70.90;;;;;;5035228;28;19921;-83
2022/10/20 13:48:53;;;;;;;;;;;15.40;70.90;;;;;;5050585;28;20434;-83
2022/10/20 13:51:24;;;;;;;;;;;15.40;70.90;;;;;;5035534;28;20441;-83
2022/10/20 13:53:51;;;;;;;;;;;15.40;70.90;;;;;;5034077;28;20420;-83
2022/10/20 13:56:17;;;;;;;;;;;15.40;70.90;;;;;;5034308;28;20009;-84
2022/10/20 13:58:59;;;;;;;;;;;15.40;70.90;;;;;;5050789;28;19953;-83
2022/10/20 14:01:25;;;;;;;;;;;15.50;70.90;;;;;;5033530;28;19920;-83
2022/10/20 14:03:51;;;;;;;;;;;15.50;70.90;;;;;;5033797;28;19940;-83
2022/10/20 14:06:26;;;;;;;;;;;15.50;70.90;;;;;;5033751;28;20360;-84
2022/10/20 14:08:52;;;;;;;;;;;15.50;70.90;;;;;;5033885;28;19913;-84
2022/10/20 14:11:17;;;;;;;;;;;15.50;70.80;;;;;;5050455;28;20408;-83
2022/10/20 14:13:43;;;;;;;;;;;15.60;70.90;;;;;;5033303;28;20007;-83
2022/10/20 14:16:16;;;;;;;;;;;15.60;70.90;;;;;;5034324;28;19913;-83
2022/10/20 14:18:42;;;;;;;;;;;15.60;70.90;;;;;;5033282;28;20035;-83
2022/10/20 14:21:15;;;;;;;;;;;15.60;70.80;;;;;;5033608;28;19953;-82
2022/10/20 14:23:42;;;;;;;;;;;15.60;70.80;;;;;;5033558;28;20014;-83
2022/10/20 14:26:12;;;;;;;;;;;15.70;70.80;;;;;;5033709;28;19917;-84